sensor_id;sensor_type;location;lat;lon;timestamp;pressure;altitude;pressure_sealevel;temperature;humidity
34197;BME280;36594;45.192;5.722;2023-03-05T00:00:14;99287.75;;;19.75;31.24
34197;BME280;36594;45.192;5.722;2023-03-05T00:03:02;99286.38;;;19.75;31.21
34197;BME280;36594;45.192;5.722;2023-03-05T00:05:55;99289.86;;;19.73;31.29
34197;BME280;36594;45.192;5.722;2023-03-05T00:08:43;99289.86;;;19.73;31.27
34197;BME280;36594;45.192;5.722;2023-03-05T00:11:32;99288.50;;;19.73;31.28
34197;BME280;36594;45.192;5.722;2023-03-05T00:14:20;99286.62;;;19.74;31.27
34197;BME280;36594;45.192;5.722;2023-03-05T00:17:08;99290.16;;;19.74;31.25
34197;BME280;36594;45.192;5.722;2023-03-05T00:19:57;99284.09;;;19.72;31.25
34197;BME280;36594;45.192;5.722;2023-03-05T00:22:46;99288.36;;;19.77;31.27
34197;BME280;36594;45.192;5.722;2023-03-05T00:25:35;99288.27;;;19.75;31.24
34197;BME280;36594;45.192;5.722;2023-03-05T00:28:23;99286.38;;;19.75;31.24
34197;BME280;36594;45.192;5.722;2023-03-05T00:31:12;99289.95;;;19.76;31.26
34197;BME280;36594;45.192;5.722;2023-03-05T00:34:06;99293.11;;;19.73;31.24
34197;BME280;36594;45.192;5.722;2023-03-05T00:36:55;99283.72;;;19.69;31.22
34197;BME280;36594;45.192;5.722;2023-03-05T00:39:44;99293.95;;;19.73;31.28
34197;BME280;36594;45.192;5.722;2023-03-05T00:42:32;99294.47;;;19.73;31.30
34197;BME280;36594;45.192;5.722;2023-03-05T00:45:21;99293.63;;;19.72;31.30
34197;BME280;36594;45.192;5.722;2023-03-05T00:48:10;99293.11;;;19.73;31.27
34197;BME280;36594;45.192;5.722;2023-03-05T00:50:58;99303.26;;;19.75;31.29
34197;BME280;36594;45.192;5.722;2023-03-05T00:53:46;99301.05;;;19.74;31.26
34197;BME280;36594;45.192;5.722;2023-03-05T00:56:35;99298.04;;;19.73;31.27
34197;BME280;36594;45.192;5.722;2023-03-05T00:59:24;99293.63;;;19.72;31.31
34197;BME280;36594;45.192;5.722;2023-03-05T01:02:13;99305.80;;;19.70;31.34
34197;BME280;36594;45.192;5.722;2023-03-05T01:05:01;99308.62;;;19.72;31.31
34197;BME280;36594;45.192;5.722;2023-03-05T01:07:54;99301.05;;;19.74;31.26
34197;BME280;36594;45.192;5.722;2023-03-05T01:10:44;99302.88;;;19.71;31.29
34197;BME280;36594;45.192;5.722;2023-03-05T01:13:33;99304.02;;;19.73;31.32
34197;BME280;36594;45.192;5.722;2023-03-05T01:16:21;99299.41;;;19.73;31.30
34197;BME280;36594;45.192;5.722;2023-03-05T01:19:11;99298.56;;;19.73;31.32
34197;BME280;36594;45.192;5.722;2023-03-05T01:22:00;99296.77;;;19.76;31.28
34197;BME280;36594;45.192;5.722;2023-03-05T01:24:48;99296.44;;;19.75;31.24
34197;BME280;36594;45.192;5.722;2023-03-05T01:27:37;99288.50;;;19.73;31.26
34197;BME280;36594;45.192;5.722;2023-03-05T01:30:25;99287.38;;;19.72;31.27
34197;BME280;36594;45.192;5.722;2023-03-05T01:33:14;99291.23;;;19.73;31.28
34197;BME280;36594;45.192;5.722;2023-03-05T01:36:10;99290.09;;;19.72;31.31
34197;BME280;36594;45.192;5.722;2023-03-05T01:39:00;99286.81;;;19.72;31.27
34197;BME280;36594;45.192;5.722;2023-03-05T01:41:49;99282.30;;;19.75;31.25
34197;BME280;36594;45.192;5.722;2023-03-05T01:44:37;99279.80;;;19.74;31.28
34197;BME280;36594;45.192;5.722;2023-03-05T01:47:25;99281.69;;;19.73;31.27
34197;BME280;36594;45.192;5.722;2023-03-05T01:50:16;99275.40;;;19.73;31.27
34197;BME280;36594;45.192;5.722;2023-03-05T01:53:07;99274.36;;;19.74;31.26
34197;BME280;36594;45.192;5.722;2023-03-05T01:55:55;99272.23;;;19.76;31.27
34197;BME280;36594;45.192;5.722;2023-03-05T01:58:44;99270.55;;;19.75;31.25
34197;BME280;36594;45.192;5.722;2023-03-05T02:01:38;99256.41;;;19.75;31.24
34197;BME280;36594;45.192;5.722;2023-03-05T02:04:35;99258.30;;;19.75;31.24
34197;BME280;36594;45.192;5.722;2023-03-05T02:07:22;99256.03;;;19.72;31.30
34197;BME280;36594;45.192;5.722;2023-03-05T02:10:19;99256.03;;;19.72;31.29
34197;BME280;36594;45.192;5.722;2023-03-05T02:13:19;99252.23;;;19.73;31.29
34197;BME280;36594;45.192;5.722;2023-03-05T02:16:03;99250.88;;;19.73;31.27
34197;BME280;36594;45.192;5.722;2023-03-05T02:18:52;99246.03;;;19.75;31.24
34197;BME280;36594;45.192;5.722;2023-03-05T02:21:43;99247.71;;;19.76;31.22
34197;BME280;36594;45.192;5.722;2023-03-05T02:24:34;99247.63;;;19.73;31.22
34197;BME280;36594;45.192;5.722;2023-03-05T02:27:26;99244.90;;;19.73;31.23
34197;BME280;36594;45.192;5.722;2023-03-05T02:30:16;99244.05;;;19.73;31.26
34197;BME280;36594;45.192;5.722;2023-03-05T02:33:05;99243.77;;;19.72;31.23
34197;BME280;36594;45.192;5.722;2023-03-05T02:35:54;99242.41;;;19.72;31.24
34197;BME280;36594;45.192;5.722;2023-03-05T02:38:43;99239.13;;;19.72;31.23
34197;BME280;36594;45.192;5.722;2023-03-05T02:41:32;99239.36;;;19.71;31.23
34197;BME280;36594;45.192;5.722;2023-03-05T02:44:21;99240.72;;;19.71;31.28
34197;BME280;36594;45.192;5.722;2023-03-05T02:47:09;99243.22;;;19.72;31.27
34197;BME280;36594;45.192;5.722;2023-03-05T02:49:58;99237.77;;;19.72;31.27
34197;BME280;36594;45.192;5.722;2023-03-05T02:52:46;99237.02;;;19.74;31.21
34197;BME280;36594;45.192;5.722;2023-03-05T02:55:37;99234.09;;;19.76;31.21
34197;BME280;36594;45.192;5.722;2023-03-05T02:58:25;99234.52;;;19.73;31.24
34197;BME280;36594;45.192;5.722;2023-03-05T03:01:13;99230.20;;;19.74;31.23
34197;BME280;36594;45.192;5.722;2023-03-05T03:04:01;99229.30;;;19.71;31.23
34197;BME280;36594;45.192;5.722;2023-03-05T03:06:50;99228.78;;;19.72;31.22
34197;BME280;36594;45.192;5.722;2023-03-05T03:09:39;99228.55;;;19.73;31.21
34197;BME280;36594;45.192;5.722;2023-03-05T03:12:28;99223.09;;;19.73;31.20
34197;BME280;36594;45.192;5.722;2023-03-05T03:15:17;99222.34;;;19.75;31.17
34197;BME280;36594;45.192;5.722;2023-03-05T03:18:06;99221.50;;;19.75;31.20
34197;BME280;36594;45.192;5.722;2023-03-05T03:20:54;99222.58;;;19.74;31.21
34197;BME280;36594;45.192;5.722;2023-03-05T03:23:42;99225.30;;;19.74;31.19
34197;BME280;36594;45.192;5.722;2023-03-05T03:26:30;99219.30;;;19.74;31.19
34197;BME280;36594;45.192;5.722;2023-03-05T03:29:19;99220.66;;;19.74;31.16
34197;BME280;36594;45.192;5.722;2023-03-05T03:32:07;99215.45;;;19.73;31.20
34197;BME280;36594;45.192;5.722;2023-03-05T03:34:56;99219.24;;;19.72;31.23
34197;BME280;36594;45.192;5.722;2023-03-05T03:37:44;99223.63;;;19.73;31.20
34197;BME280;36594;45.192;5.722;2023-03-05T03:40:33;99221.33;;;19.70;31.22
34197;BME280;36594;45.192;5.722;2023-03-05T03:43:23;99221.33;;;19.70;31.18
34197;BME280;36594;45.192;5.722;2023-03-05T03:46:11;99232.87;;;19.72;31.21
34197;BME280;36594;45.192;5.722;2023-03-05T03:49:00;99225.41;;;19.70;31.18
34197;BME280;36594;45.192;5.722;2023-03-05T03:51:50;99225.73;;;19.71;31.22
34197;BME280;36594;45.192;5.722;2023-03-05T03:54:40;99221.41;;;19.72;31.17
34197;BME280;36594;45.192;5.722;2023-03-05T03:57:29;99220.61;;;19.72;31.20
34197;BME280;36594;45.192;5.722;2023-03-05T04:00:20;99220.89;;;19.73;31.18
34197;BME280;36594;45.192;5.722;2023-03-05T04:03:09;99216.52;;;19.72;31.18
34197;BME280;36594;45.192;5.722;2023-03-05T04:05:57;99217.80;;;19.69;31.20
34197;BME280;36594;45.192;5.722;2023-03-05T04:08:46;99215.59;;;19.69;31.19
34197;BME280;36594;45.192;5.722;2023-03-05T04:11:35;99220.52;;;19.69;31.19
34197;BME280;36594;45.192;5.722;2023-03-05T04:14:23;99217.04;;;19.71;31.17
34197;BME280;36594;45.192;5.722;2023-03-05T04:17:13;99217.88;;;19.72;31.17
34197;BME280;36594;45.192;5.722;2023-03-05T04:20:02;99219.77;;;19.71;31.17
34197;BME280;36594;45.192;5.722;2023-03-05T04:22:51;99215.07;;;19.69;31.18
34197;BME280;36594;45.192;5.722;2023-03-05T04:25:40;99219.59;;;19.66;31.21
34197;BME280;36594;45.192;5.722;2023-03-05T04:28:30;99215.27;;;19.68;31.20
34197;BME280;36594;45.192;5.722;2023-03-05T04:31:18;99209.30;;;19.68;31.14
34197;BME280;36594;45.192;5.722;2023-03-05T04:34:07;99206.05;;;19.69;31.19
34197;BME280;36594;45.192;5.722;2023-03-05T04:36:55;99203.41;;;19.71;31.15
34197;BME280;36594;45.192;5.722;2023-03-05T04:39:43;99206.66;;;19.71;31.15
34197;BME280;36594;45.192;5.722;2023-03-05T04:42:32;99198.17;;;19.70;31.13
34197;BME280;36594;45.192;5.722;2023-03-05T04:45:20;99192.11;;;19.68;31.16
34197;BME280;36594;45.192;5.722;2023-03-05T04:48:10;99197.04;;;19.68;31.15
34197;BME280;36594;45.192;5.722;2023-03-05T04:50:59;99197.64;;;19.70;31.16
34197;BME280;36594;45.192;5.722;2023-03-05T04:53:47;99197.56;;;19.68;31.15
34197;BME280;36594;45.192;5.722;2023-03-05T04:56:36;99199.77;;;19.68;31.17
34197;BME280;36594;45.192;5.722;2023-03-05T04:59:24;99191.59;;;19.68;31.14
34197;BME280;36594;45.192;5.722;2023-03-05T05:02:13;99195.16;;;19.69;31.13
34197;BME280;36594;45.192;5.722;2023-03-05T05:05:01;99188.34;;;19.69;31.14
34197;BME280;36594;45.192;5.722;2023-03-05T05:07:53;99192.43;;;19.69;31.14
34197;BME280;36594;45.192;5.722;2023-03-05T05:10:42;99191.91;;;19.69;31.14
34197;BME280;36594;45.192;5.722;2023-03-05T05:13:31;99195.77;;;19.71;31.15
34197;BME280;36594;45.192;5.722;2023-03-05T05:16:20;99187.82;;;19.69;31.16
34197;BME280;36594;45.192;5.722;2023-03-05T05:19:08;99186.66;;;19.68;31.13
34197;BME280;36594;45.192;5.722;2023-03-05T05:21:56;99189.99;;;19.70;31.13
34197;BME280;36594;45.192;5.722;2023-03-05T05:24:45;99192.95;;;19.68;31.14
34197;BME280;36594;45.192;5.722;2023-03-05T05:27:33;99194.40;;;19.71;31.13
34197;BME280;36594;45.192;5.722;2023-03-05T05:30:22;99193.27;;;19.69;31.11
34197;BME280;36594;45.192;5.722;2023-03-05T05:33:10;99197.88;;;19.69;31.11
34197;BME280;36594;45.192;5.722;2023-03-05T05:36:00;99201.36;;;19.67;31.15
34197;BME280;36594;45.192;5.722;2023-03-05T05:38:48;99204.38;;;19.68;31.14
34197;BME280;36594;45.192;5.722;2023-03-05T05:41:37;99197.56;;;19.68;31.14
34197;BME280;36594;45.192;5.722;2023-03-05T05:44:25;99202.81;;;19.69;31.13
34197;BME280;36594;45.192;5.722;2023-03-05T05:47:15;99198.41;;;19.68;31.13
34197;BME280;36594;45.192;5.722;2023-03-05T05:50:04;99197.04;;;19.68;31.13
34197;BME280;36594;45.192;5.722;2023-03-05T05:52:54;99201.88;;;19.66;31.13
34197;BME280;36594;45.192;5.722;2023-03-05T05:55:42;99200.52;;;19.66;31.16
34197;BME280;36594;45.192;5.722;2023-03-05T05:58:30;99204.69;;;19.69;31.14
34197;BME280;36594;45.192;5.722;2023-03-05T06:01:25;99205.73;;;19.68;31.11
34197;BME280;36594;45.192;5.722;2023-03-05T06:04:14;99203.33;;;19.69;31.12
34197;BME280;36594;45.192;5.722;2023-03-05T06:07:03;99206.29;;;19.67;31.15
34197;BME280;36594;45.192;5.722;2023-03-05T06:09:51;99194.55;;;19.67;31.13
34197;BME280;36594;45.192;5.722;2023-03-05T06:12:40;99198.11;;;19.67;31.14
34197;BME280;36594;45.192;5.722;2023-03-05T06:15:28;99205.73;;;19.68;31.08
34197;BME280;36594;45.192;5.722;2023-03-05T06:18:17;99206.81;;;19.67;31.14
34197;BME280;36594;45.192;5.722;2023-03-05T06:21:09;99200.00;;;19.67;31.13
34197;BME280;36594;45.192;5.722;2023-03-05T06:23:56;99211.94;;;19.66;31.11
34197;BME280;36594;45.192;5.722;2023-03-05T06:26:47;99211.94;;;19.66;31.15
34197;BME280;36594;45.192;5.722;2023-03-05T06:29:36;99217.39;;;19.66;31.14
34197;BME280;36594;45.192;5.722;2023-03-05T06:32:24;99221.48;;;19.66;31.10
34197;BME280;36594;45.192;5.722;2023-03-05T06:35:12;99224.20;;;19.66;31.12
34197;BME280;36594;45.192;5.722;2023-03-05T06:38:01;99223.16;;;19.67;31.10
34197;BME280;36594;45.192;5.722;2023-03-05T06:40:49;99223.68;;;19.66;31.15
34197;BME280;36594;45.192;5.722;2023-03-05T06:43:40;99223.16;;;19.67;31.10
34197;BME280;36594;45.192;5.722;2023-03-05T06:46:34;99221.19;;;19.65;31.10
34197;BME280;36594;45.192;5.722;2023-03-05T06:49:26;99217.19;;;19.67;31.10
34197;BME280;36594;45.192;5.722;2023-03-05T06:52:15;99217.39;;;19.66;31.14
34197;BME280;36594;45.192;5.722;2023-03-05T06:55:04;99225.88;;;19.67;31.12
34197;BME280;36594;45.192;5.722;2023-03-05T06:57:52;99223.16;;;19.67;31.12
34197;BME280;36594;45.192;5.722;2023-03-05T07:00:42;99223.68;;;19.66;31.11
34197;BME280;36594;45.192;5.722;2023-03-05T07:03:30;99222.23;;;19.64;31.12
34197;BME280;36594;45.192;5.722;2023-03-05T07:06:20;99223.36;;;19.65;31.12
34197;BME280;36594;45.192;5.722;2023-03-05T07:09:14;99224.52;;;19.67;31.10
34197;BME280;36594;45.192;5.722;2023-03-05T07:12:03;99216.87;;;19.66;31.10
34197;BME280;36594;45.192;5.722;2023-03-05T07:14:52;99210.05;;;19.66;31.11
34197;BME280;36594;45.192;5.722;2023-03-05T07:17:40;99214.66;;;19.66;31.12
34197;BME280;36594;45.192;5.722;2023-03-05T07:20:29;99212.26;;;19.67;31.11
34197;BME280;36594;45.192;5.722;2023-03-05T07:23:17;99214.66;;;19.66;31.12
34197;BME280;36594;45.192;5.722;2023-03-05T07:26:06;99206.81;;;19.67;31.08
34197;BME280;36594;45.192;5.722;2023-03-05T07:28:54;99200.20;;;19.65;31.08
34197;BME280;36594;45.192;5.722;2023-03-05T07:31:42;99206.81;;;19.67;31.07
34197;BME280;36594;45.192;5.722;2023-03-05T07:34:30;99201.36;;;19.67;31.10
34197;BME280;36594;45.192;5.722;2023-03-05T07:37:19;99196.52;;;19.69;31.07
34197;BME280;36594;45.192;5.722;2023-03-05T07:40:08;99198.11;;;19.67;31.08
34197;BME280;36594;45.192;5.722;2023-03-05T07:42:57;99199.48;;;19.67;31.06
34197;BME280;36594;45.192;5.722;2023-03-05T07:45:47;99199.24;;;19.69;31.02
34197;BME280;36594;45.192;5.722;2023-03-05T07:48:35;99198.72;;;19.69;31.04
34197;BME280;36594;45.192;5.722;2023-03-05T07:51:26;99201.04;;;19.66;31.07
34197;BME280;36594;45.192;5.722;2023-03-05T07:54:14;99206.81;;;19.67;31.08
34197;BME280;36594;45.192;5.722;2023-03-05T07:57:04;99211.19;;;19.68;31.04
34197;BME280;36594;45.192;5.722;2023-03-05T07:59:53;99206.29;;;19.67;31.04
34197;BME280;36594;45.192;5.722;2023-03-05T08:02:41;99201.65;;;19.68;31.11
34197;BME280;36594;45.192;5.722;2023-03-05T08:05:30;99200.28;;;19.68;31.08
34197;BME280;36594;45.192;5.722;2023-03-05T08:08:18;99198.92;;;19.68;31.08
34197;BME280;36594;45.192;5.722;2023-03-05T08:11:09;99196.00;;;19.69;31.05
34197;BME280;36594;45.192;5.722;2023-03-05T08:13:58;99197.12;;;19.71;31.04
34197;BME280;36594;45.192;5.722;2023-03-05T08:16:46;99191.06;;;19.69;31.05
34197;BME280;36594;45.192;5.722;2023-03-05T08:19:36;99192.95;;;19.68;31.06
34197;BME280;36594;45.192;5.722;2023-03-05T08:22:25;99191.06;;;19.69;31.08
34197;BME280;36594;45.192;5.722;2023-03-05T08:25:13;99188.58;;;19.67;31.04
34197;BME280;36594;45.192;5.722;2023-03-05T08:28:02;99182.58;;;19.68;31.09
34197;BME280;36594;45.192;5.722;2023-03-05T08:30:51;99178.20;;;19.67;31.09
34197;BME280;36594;45.192;5.722;2023-03-05T08:33:40;99174.40;;;19.68;31.06
34197;BME280;36594;45.192;5.722;2023-03-05T08:36:28;99171.39;;;19.67;31.07
34197;BME280;36594;45.192;5.722;2023-03-05T08:39:18;99172.52;;;19.68;31.08
34197;BME280;36594;45.192;5.722;2023-03-05T08:42:07;99169.79;;;19.68;31.08
34197;BME280;36594;45.192;5.722;2023-03-05T08:44:55;99166.78;;;19.67;31.09
34197;BME280;36594;45.192;5.722;2023-03-05T08:47:43;99162.45;;;19.69;31.12
34197;BME280;36594;45.192;5.722;2023-03-05T08:50:32;99152.40;;;19.69;31.10
34197;BME280;36594;45.192;5.722;2023-03-05T08:53:20;99153.52;;;19.71;31.08
34197;BME280;36594;45.192;5.722;2023-03-05T08:56:08;99151.55;;;19.69;31.09
34197;BME280;36594;45.192;5.722;2023-03-05T08:58:57;99146.63;;;19.68;31.10
34197;BME280;36594;45.192;5.722;2023-03-05T09:01:45;99146.19;;;19.71;31.08
34197;BME280;36594;45.192;5.722;2023-03-05T09:04:33;99147.03;;;19.72;31.07
34197;BME280;36594;45.192;5.722;2023-03-05T09:07:22;99146.11;;;19.69;31.09
34197;BME280;36594;45.192;5.722;2023-03-05T09:10:11;99149.12;;;19.70;31.10
34197;BME280;36594;45.192;5.722;2023-03-05T09:13:01;99144.31;;;19.72;31.10
34197;BME280;36594;45.192;5.722;2023-03-05T09:16:01;99145.11;;;19.72;31.08
34197;BME280;36594;45.192;5.722;2023-03-05T09:18:44;99147.08;;;19.74;31.06
34197;BME280;36594;45.192;5.722;2023-03-05T09:21:33;99147.64;;;19.74;31.07
34197;BME280;36594;45.192;5.722;2023-03-05T09:24:21;99147.64;;;19.74;31.07
34197;BME280;36594;45.192;5.722;2023-03-05T09:27:10;99143.08;;;19.77;31.07
34197;BME280;36594;45.192;5.722;2023-03-05T09:29:58;99145.20;;;19.75;31.06
34197;BME280;36594;45.192;5.722;2023-03-05T09:32:46;99140.67;;;19.78;31.03
34197;BME280;36594;45.192;5.722;2023-03-05T09:35:35;99142.35;;;19.79;31.01
34197;BME280;36594;45.192;5.722;2023-03-05T09:38:24;99132.81;;;19.79;31.04
34197;BME280;36594;45.192;5.722;2023-03-05T09:41:22;99128.41;;;19.78;31.05
34197;BME280;36594;45.192;5.722;2023-03-05T09:50:50;99120.84;;;19.80;31.08
34197;BME280;36594;45.192;5.722;2023-03-05T09:53:43;99119.63;;;19.76;31.09
34197;BME280;36594;45.192;5.722;2023-03-05T09:56:33;99109.56;;;19.76;31.12
34197;BME280;36594;45.192;5.722;2023-03-05T09:59:32;99097.59;;;19.77;31.12
34197;BME280;36594;45.192;5.722;2023-03-05T10:02:31;99097.14;;;19.80;31.06
34197;BME280;36594;45.192;5.722;2023-03-05T10:05:25;99098.43;;;19.78;31.04
34197;BME280;36594;45.192;5.722;2023-03-05T10:08:15;99094.11;;;19.79;31.08
34197;BME280;36594;45.192;5.722;2023-03-05T10:11:06;99091.46;;;19.82;31.07
34197;BME280;36594;45.192;5.722;2023-03-05T10:13:55;99086.61;;;19.84;31.00
34197;BME280;36594;45.192;5.722;2023-03-05T10:38:30;99045.61;;;19.79;31.04
34197;BME280;36594;45.192;5.722;2023-03-05T10:47:51;99034.91;;;19.77;31.08
34197;BME280;36594;45.192;5.722;2023-03-05T10:50:29;99027.26;;;19.77;31.09
34197;BME280;36594;45.192;5.722;2023-03-05T10:53:22;99026.21;;;19.78;31.10
34197;BME280;36594;45.192;5.722;2023-03-05T10:56:10;99028.70;;;19.79;31.08
34197;BME280;36594;45.192;5.722;2023-03-05T10:58:59;99020.31;;;19.81;31.05
34197;BME280;36594;45.192;5.722;2023-03-05T11:02:00;99017.59;;;19.81;31.04
34197;BME280;36594;45.192;5.722;2023-03-05T11:04:39;99012.14;;;19.81;31.01
34197;BME280;36594;45.192;5.722;2023-03-05T11:07:31;99009.70;;;19.82;31.03
34197;BME280;36594;45.192;5.722;2023-03-05T11:10:19;99000.40;;;19.80;31.03
34197;BME280;36594;45.192;5.722;2023-03-05T11:13:28;98996.39;;;19.83;31.01
34197;BME280;36594;45.192;5.722;2023-03-05T11:16:23;98990.86;;;19.80;31.02
34197;BME280;36594;45.192;5.722;2023-03-05T11:19:19;98971.56;;;19.73;31.04
34197;BME280;36594;45.192;5.722;2023-03-05T11:22:17;98979.44;;;19.81;31.02
34197;BME280;36594;45.192;5.722;2023-03-05T11:25:15;98972.63;;;19.81;31.04
34197;BME280;36594;45.192;5.722;2023-03-05T11:28:07;98966.02;;;19.79;31.06
34197;BME280;36594;45.192;5.722;2023-03-05T11:30:58;98960.81;;;19.78;31.05
34197;BME280;36594;45.192;5.722;2023-03-05T11:33:58;98954.07;;;19.80;31.03
34197;BME280;36594;45.192;5.722;2023-03-05T11:39:44;98945.05;;;19.80;31.04
34197;BME280;36594;45.192;5.722;2023-03-05T11:42:33;98940.20;;;19.82;31.00
34197;BME280;36594;45.192;5.722;2023-03-05T11:45:24;98936.04;;;19.79;31.04
34197;BME280;36594;45.192;5.722;2023-03-05T11:48:23;98929.55;;;19.80;31.03
34197;BME280;36594;45.192;5.722;2023-03-05T11:51:24;98925.22;;;19.82;31.03
34197;BME280;36594;45.192;5.722;2023-03-05T11:54:11;98921.13;;;19.82;31.02
34197;BME280;36594;45.192;5.722;2023-03-05T11:56:59;98918.88;;;19.79;31.03
34197;BME280;36594;45.192;5.722;2023-03-05T11:59:50;98914.24;;;19.79;31.02
34197;BME280;36594;45.192;5.722;2023-03-05T12:02:39;98914.24;;;19.79;31.01
34197;BME280;36594;45.192;5.722;2023-03-05T12:05:29;98911.52;;;19.79;31.01
34197;BME280;36594;45.192;5.722;2023-03-05T12:08:21;98902.53;;;19.79;31.01
34197;BME280;36594;45.192;5.722;2023-03-05T12:11:20;98896.59;;;19.82;31.00
34197;BME280;36594;45.192;5.722;2023-03-05T12:14:24;98893.28;;;19.80;30.99
34197;BME280;36594;45.192;5.722;2023-03-05T12:17:20;98888.35;;;19.79;30.98
34197;BME280;36594;45.192;5.722;2023-03-05T12:20:13;98878.22;;;19.77;31.05
34197;BME280;36594;45.192;5.722;2023-03-05T12:23:01;98873.92;;;19.79;30.99
34197;BME280;36594;45.192;5.722;2023-03-05T12:25:54;98870.11;;;19.80;30.99
34197;BME280;36594;45.192;5.722;2023-03-05T12:31:38;98849.39;;;19.79;30.99
34197;BME280;36594;45.192;5.722;2023-03-05T12:40:29;98834.16;;;19.80;30.97
34197;BME280;36594;45.192;5.722;2023-03-05T12:43:31;98828.19;;;19.81;30.92
34197;BME280;36594;45.192;5.722;2023-03-05T12:46:26;98824.09;;;19.81;30.92
34197;BME280;36594;45.192;5.722;2023-03-05T12:52:23;98815.08;;;19.80;30.97
34197;BME280;36594;45.192;5.722;2023-03-05T12:55:23;98804.19;;;19.80;30.93
34197;BME280;36594;45.192;5.722;2023-03-05T12:58:24;98797.06;;;19.79;30.99
34197;BME280;36594;45.192;5.722;2023-03-05T13:04:16;98788.08;;;19.79;30.97
34197;BME280;36594;45.192;5.722;2023-03-05T13:07:14;98779.06;;;19.78;30.97
34197;BME280;36594;45.192;5.722;2023-03-05T13:10:04;98770.65;;;19.80;30.96
34197;BME280;36594;45.192;5.722;2023-03-05T13:12:55;98766.03;;;19.80;30.98
34197;BME280;36594;45.192;5.722;2023-03-05T13:15:47;98758.14;;;19.81;30.97
34197;BME280;36594;45.192;5.722;2023-03-05T13:18:36;98756.84;;;19.84;30.94
34197;BME280;36594;45.192;5.722;2023-03-05T13:21:28;98754.67;;;19.83;30.90
34197;BME280;36594;45.192;5.722;2023-03-05T13:24:19;98745.94;;;19.84;30.92
34197;BME280;36594;45.192;5.722;2023-03-05T13:27:23;98743.53;;;19.85;30.90
34197;BME280;36594;45.192;5.722;2023-03-05T13:30:19;98741.39;;;19.87;30.87
34197;BME280;36594;45.192;5.722;2023-03-05T13:33:01;98726.66;;;19.85;30.86
34197;BME280;36594;45.192;5.722;2023-03-05T13:35:51;98723.09;;;19.85;30.87
34197;BME280;36594;45.192;5.722;2023-03-05T13:38:47;98723.09;;;19.85;30.88
34197;BME280;36594;45.192;5.722;2023-03-05T13:41:31;98723.09;;;19.85;30.84
34197;BME280;36594;45.192;5.722;2023-03-05T13:44:20;98721.41;;;19.84;30.88
34197;BME280;36594;45.192;5.722;2023-03-05T13:47:17;98714.91;;;19.85;30.87
34197;BME280;36594;45.192;5.722;2023-03-05T13:50:20;98709.46;;;19.85;30.86
34197;BME280;36594;45.192;5.722;2023-03-05T13:53:16;98710.23;;;19.83;30.90
34197;BME280;36594;45.192;5.722;2023-03-05T13:56:07;98704.26;;;19.83;30.92
34197;BME280;36594;45.192;5.722;2023-03-05T13:58:56;98704.78;;;19.83;30.91
34197;BME280;36594;45.192;5.722;2023-03-05T14:01:46;98699.61;;;19.84;30.89
34197;BME280;36594;45.192;5.722;2023-03-05T14:04:36;98690.38;;;19.85;30.88
34197;BME280;36594;45.192;5.722;2023-03-05T14:07:31;98693.36;;;19.83;30.89
34197;BME280;36594;45.192;5.722;2023-03-05T14:10:30;98681.44;;;19.87;30.86
34197;BME280;36594;45.192;5.722;2023-03-05T14:13:23;98685.00;;;19.87;30.86
34197;BME280;36594;45.192;5.722;2023-03-05T14:16:26;98679.80;;;19.86;30.85
34197;BME280;36594;45.192;5.722;2023-03-05T14:19:05;98671.25;;;19.82;30.87
34197;BME280;36594;45.192;5.722;2023-03-05T14:21:55;98667.16;;;19.82;30.89
34197;BME280;36594;45.192;5.722;2023-03-05T14:24:55;98664.74;;;19.83;30.88
34197;BME280;36594;45.192;5.722;2023-03-05T14:27:36;98663.66;;;19.84;30.85
34197;BME280;36594;45.192;5.722;2023-03-05T14:30:25;98657.69;;;19.85;30.85
34197;BME280;36594;45.192;5.722;2023-03-05T14:33:13;98657.38;;;19.84;30.86
34197;BME280;36594;45.192;5.722;2023-03-05T14:36:04;98651.70;;;19.85;30.82
34197;BME280;36594;45.192;5.722;2023-03-05T14:38:53;98650.87;;;19.85;30.85
34197;BME280;36594;45.192;5.722;2023-03-05T14:41:43;98640.55;;;19.87;30.85
34197;BME280;36594;45.192;5.722;2023-03-05T14:44:31;98635.05;;;19.84;30.85
34197;BME280;36594;45.192;5.722;2023-03-05T14:47:21;98640.55;;;19.87;30.82
34197;BME280;36594;45.192;5.722;2023-03-05T14:50:20;98628.30;;;19.87;30.82
34197;BME280;36594;45.192;5.722;2023-03-05T14:53:08;98630.73;;;19.86;30.84
34197;BME280;36594;45.192;5.722;2023-03-05T14:55:57;98626.09;;;19.86;30.80
34197;BME280;36594;45.192;5.722;2023-03-05T14:58:45;98621.20;;;19.86;30.82
34197;BME280;36594;45.192;5.722;2023-03-05T15:01:33;98628.81;;;19.86;30.81
34197;BME280;36594;45.192;5.722;2023-03-05T15:04:22;98619.34;;;19.89;30.75
34197;BME280;36594;45.192;5.722;2023-03-05T15:07:19;98608.69;;;19.87;30.76
34197;BME280;36594;45.192;5.722;2023-03-05T15:10:09;98604.54;;;19.85;30.78
34197;BME280;36594;45.192;5.722;2023-03-05T15:12:57;98611.66;;;19.86;30.80
34197;BME280;36594;45.192;5.722;2023-03-05T15:15:47;98594.23;;;19.87;30.80
34197;BME280;36594;45.192;5.722;2023-03-05T15:18:35;98596.12;;;19.86;30.82
34197;BME280;36594;45.192;5.722;2023-03-05T15:21:23;98598.03;;;19.86;30.81
34197;BME280;36594;45.192;5.722;2023-03-05T15:24:12;98595.59;;;19.87;30.80
34197;BME280;36594;45.192;5.722;2023-03-05T15:27:01;98595.12;;;19.90;30.74
34197;BME280;36594;45.192;5.722;2023-03-05T15:29:50;98592.61;;;19.88;30.74
34197;BME280;36594;45.192;5.722;2023-03-05T15:32:38;98589.09;;;19.88;30.71
34197;BME280;36594;45.192;5.722;2023-03-05T15:35:27;98585.52;;;19.87;30.74
34197;BME280;36594;45.192;5.722;2023-03-05T15:38:15;98587.72;;;19.88;30.72
34197;BME280;36594;45.192;5.722;2023-03-05T15:41:04;98578.77;;;19.90;30.72
34197;BME280;36594;45.192;5.722;2023-03-05T15:43:52;98574.09;;;19.88;30.70
34197;BME280;36594;45.192;5.722;2023-03-05T15:46:40;98576.27;;;19.88;30.73
34197;BME280;36594;45.192;5.722;2023-03-05T15:49:29;98570.28;;;19.89;30.67
34197;BME280;36594;45.192;5.722;2023-03-05T15:52:17;98568.92;;;19.89;30.71